createdAt,value
2018-09-29T00:01:46.711Z,1.33
2018-09-29T00:04:15.418Z,1.43
2018-09-29T00:06:44.111Z,1.23
2018-09-29T00:09:13.274Z,1.60
2018-09-29T00:11:42.057Z,1.37
2018-09-29T00:14:11.615Z,1.50
2018-09-29T00:16:40.405Z,1.67
2018-09-29T00:19:09.125Z,1.70
2018-09-29T00:21:37.806Z,1.63
2018-09-29T00:24:06.538Z,1.40
2018-09-29T00:26:35.340Z,1.60
2018-09-29T00:29:04.059Z,1.60
2018-09-29T00:31:32.750Z,1.17
2018-09-29T00:34:01.438Z,1.50
2018-09-29T00:36:30.136Z,1.30
2018-09-29T00:38:58.858Z,1.70
2018-09-29T00:41:27.581Z,1.33
2018-09-29T00:43:56.352Z,1.40
2018-09-29T00:46:25.082Z,1.40
2018-09-29T00:48:53.795Z,1.30
2018-09-29T00:51:22.514Z,1.70
2018-09-29T00:53:51.163Z,1.83
2018-09-29T00:56:19.958Z,1.20
2018-09-29T00:58:48.782Z,1.30
2018-09-29T01:01:17.599Z,1.13
2018-09-29T01:03:46.315Z,1.30
2018-09-29T01:06:15.116Z,1.40
2018-09-29T01:08:43.861Z,1.30
2018-09-29T01:11:12.602Z,1.40
2018-09-29T01:13:41.361Z,1.30
2018-09-29T01:16:10.151Z,1.50
2018-09-29T01:18:38.910Z,1.60
2018-09-29T01:21:09.505Z,1.33
2018-09-29T01:23:38.724Z,1.20
2018-09-29T01:26:07.611Z,1.30
2018-09-29T01:28:37.093Z,1.60
2018-09-29T01:31:06.626Z,1.70
2018-09-29T01:33:35.414Z,1.40
2018-09-29T01:36:04.165Z,1.43
2018-09-29T01:38:32.853Z,1.37
2018-09-29T01:41:01.589Z,1.20
2018-09-29T01:43:30.345Z,1.20
2018-09-29T01:45:59.097Z,1.23
2018-09-29T01:48:27.761Z,1.50
2018-09-29T01:50:56.436Z,1.30
2018-09-29T01:53:25.689Z,1.63
2018-09-29T01:55:54.521Z,1.43
2018-09-29T01:58:23.302Z,1.40
2018-09-29T02:00:52.113Z,1.37
2018-09-29T02:03:20.891Z,1.20
2018-09-29T02:05:49.620Z,1.53
2018-09-29T02:08:18.332Z,1.50
2018-09-29T02:10:47.116Z,1.57
2018-09-29T02:13:15.814Z,1.60
2018-09-29T02:15:44.591Z,1.60
2018-09-29T02:18:13.272Z,1.57
2018-09-29T02:20:42.892Z,1.37
2018-09-29T02:23:11.577Z,1.70
2018-09-29T02:25:40.315Z,1.23
2018-09-29T02:28:09.069Z,1.43
2018-09-29T02:30:37.801Z,1.70
2018-09-29T02:33:06.573Z,1.63
2018-09-29T02:35:35.313Z,1.53
2018-09-29T02:38:04.142Z,1.70
2018-09-29T02:40:32.977Z,1.93
2018-09-29T02:43:01.833Z,1.37
2018-09-29T02:45:30.592Z,1.20
2018-09-29T02:47:59.429Z,1.70
2018-09-29T02:50:28.125Z,1.70
2018-09-29T02:52:56.821Z,1.80
2018-09-29T02:55:25.596Z,1.50
2018-09-29T02:57:54.362Z,1.63
2018-09-29T03:00:23.034Z,2.40
2018-09-29T03:02:52.429Z,1.90
2018-09-29T03:05:21.995Z,1.90
2018-09-29T03:07:50.720Z,3.27
2018-09-29T03:10:19.503Z,2.10
2018-09-29T03:12:48.267Z,1.60
2018-09-29T03:15:17.036Z,1.10
2018-09-29T03:17:45.812Z,1.60
2018-09-29T03:20:14.530Z,1.60
2018-09-29T03:22:43.269Z,1.27
2018-09-29T03:25:12.029Z,1.50
2018-09-29T03:27:40.727Z,1.40
2018-09-29T03:30:09.638Z,1.33
2018-09-29T03:32:38.318Z,1.50
2018-09-29T03:35:07.056Z,1.67
2018-09-29T03:37:35.753Z,1.33
2018-09-29T03:40:04.546Z,2.17
2018-09-29T03:42:33.279Z,1.37
2018-09-29T03:45:02.045Z,1.47
2018-09-29T03:47:30.739Z,1.70
2018-09-29T03:49:59.830Z,1.60
2018-09-29T03:52:28.515Z,1.60
2018-09-29T03:54:57.274Z,1.60
2018-09-29T03:57:26.254Z,1.80
2018-09-29T03:59:55.052Z,1.60
2018-09-29T04:02:23.761Z,1.37
2018-09-29T04:04:52.561Z,1.73
2018-09-29T04:07:21.338Z,2.10
2018-09-29T04:09:50.209Z,1.40
2018-09-29T04:12:18.993Z,1.90
2018-09-29T04:14:47.796Z,1.20
2018-09-29T04:17:17.592Z,1.50
2018-09-29T04:19:46.315Z,1.70
2018-09-29T04:22:15.076Z,2.00
2018-09-29T04:24:43.785Z,1.87
2018-09-29T04:27:12.552Z,2.03
2018-09-29T04:29:41.361Z,1.53
2018-09-29T04:32:10.106Z,2.20
2018-09-29T04:34:38.827Z,2.10
2018-09-29T04:37:07.497Z,2.00
2018-09-29T04:39:36.264Z,2.40
2018-09-29T04:42:05.025Z,2.13
2018-09-29T04:44:33.811Z,1.90
2018-09-29T04:47:02.569Z,2.20
2018-09-29T04:49:31.389Z,2.43
2018-09-29T04:52:00.110Z,2.17
2018-09-29T04:54:28.818Z,1.70
2018-09-29T04:56:57.545Z,2.13
2018-09-29T04:59:26.332Z,1.73
2018-09-29T05:01:55.112Z,1.90
2018-09-29T05:04:23.831Z,1.70
2018-09-29T05:06:52.544Z,2.60
2018-09-29T05:09:21.263Z,1.83
2018-09-29T05:11:49.995Z,1.47
2018-09-29T05:14:18.701Z,1.90
2018-09-29T05:16:47.564Z,1.80
2018-09-29T05:19:16.318Z,1.53
2018-09-29T05:21:45.037Z,1.97
2018-09-29T05:24:13.717Z,1.80
2018-09-29T05:26:42.530Z,1.63
2018-09-29T05:29:11.232Z,2.03
2018-09-29T05:31:40.037Z,1.60
2018-09-29T05:34:08.761Z,1.47
2018-09-29T05:36:37.572Z,2.00
2018-09-29T05:39:07.664Z,1.50
2018-09-29T05:41:36.450Z,1.80
2018-09-29T05:44:05.176Z,1.60
2018-09-29T05:46:33.911Z,1.50
2018-09-29T05:49:02.781Z,1.60
2018-09-29T05:51:31.777Z,1.73
2018-09-29T05:54:00.572Z,1.70
2018-09-29T05:56:29.264Z,1.70
2018-09-29T05:58:57.957Z,1.80
2018-09-29T06:01:26.758Z,2.23
2018-09-29T06:03:55.556Z,1.53
2018-09-29T06:06:24.345Z,2.00
2018-09-29T06:08:53.034Z,1.57
2018-09-29T06:11:21.813Z,1.90
2018-09-29T06:13:50.549Z,1.57
2018-09-29T06:16:19.283Z,1.83
2018-09-29T06:18:47.980Z,1.60
2018-09-29T06:21:16.738Z,1.80
2018-09-29T06:23:45.401Z,1.70
2018-09-29T06:26:14.129Z,1.70
2018-09-29T06:28:42.868Z,2.00
2018-09-29T06:31:11.696Z,1.73
2018-09-29T06:33:40.920Z,2.00
2018-09-29T06:36:09.739Z,1.90
2018-09-29T06:38:38.802Z,2.03
2018-09-29T06:41:07.771Z,2.30
2018-09-29T06:43:36.556Z,2.90
2018-09-29T06:46:05.357Z,2.13
2018-09-29T06:48:34.170Z,2.03
2018-09-29T06:51:02.930Z,1.80
2018-09-29T06:53:31.733Z,1.63
2018-09-29T06:56:00.481Z,1.90
2018-09-29T06:58:29.330Z,1.40
2018-09-29T07:00:58.144Z,1.43
2018-09-29T07:03:27.266Z,1.90
2018-09-29T07:05:56.024Z,1.37
2018-09-29T07:08:24.762Z,1.50
2018-09-29T07:10:53.415Z,1.50
2018-09-29T07:13:22.176Z,1.47
2018-09-29T07:15:50.901Z,1.40
2018-09-29T07:18:20.181Z,1.30
2018-09-29T07:20:49.316Z,1.70
2018-09-29T07:23:18.190Z,1.50
2018-09-29T07:25:46.972Z,1.30
2018-09-29T07:28:15.710Z,1.23
2018-09-29T07:30:44.624Z,1.20
2018-09-29T07:33:13.857Z,1.40
2018-09-29T07:35:42.700Z,1.53
2018-09-29T07:38:11.421Z,1.43
2018-09-29T07:40:40.107Z,1.37
2018-09-29T07:43:08.862Z,1.40
2018-09-29T07:45:39.094Z,1.33
2018-09-29T07:48:07.938Z,1.37
2018-09-29T07:50:36.653Z,1.30
2018-09-29T07:53:05.467Z,1.07
2018-09-29T07:55:34.237Z,1.20
2018-09-29T07:58:02.940Z,1.50
2018-09-29T08:00:31.643Z,1.27
2018-09-29T08:03:00.403Z,1.13
2018-09-29T08:05:29.166Z,1.20
2018-09-29T08:07:58.351Z,1.17
2018-09-29T08:10:37.240Z,1.13
2018-09-29T08:13:06.044Z,1.23
2018-09-29T08:15:34.799Z,1.10
2018-09-29T08:18:03.560Z,1.37
2018-09-29T08:20:32.683Z,1.20
2018-09-29T08:23:01.451Z,1.30
2018-09-29T08:25:30.243Z,1.60
2018-09-29T08:27:59.031Z,1.23
2018-09-29T08:30:27.776Z,1.00
2018-09-29T08:32:56.562Z,1.00
2018-09-29T08:35:25.372Z,1.30
2018-09-29T08:37:55.720Z,0.90
2018-09-29T08:40:25.056Z,1.30
2018-09-29T08:42:54.549Z,1.20
2018-09-29T08:45:23.233Z,1.20
2018-09-29T08:47:52.008Z,1.27
2018-09-29T08:53:29.561Z,1.27
2018-09-29T08:55:58.157Z,1.00
2018-09-29T08:58:26.657Z,1.10
2018-09-29T09:00:55.221Z,1.20
2018-09-29T09:03:24.519Z,1.03
2018-09-29T09:05:53.278Z,1.60
2018-09-29T09:08:22.249Z,1.13
2018-09-29T09:10:51.393Z,0.90
2018-09-29T09:13:20.353Z,1.20
2018-09-29T09:15:49.364Z,1.00
2018-09-29T09:18:18.307Z,1.17
2018-09-29T09:20:53.256Z,1.00
2018-09-29T09:23:22.116Z,1.43
2018-09-29T09:25:51.109Z,1.40
2018-09-29T09:28:20.512Z,1.40
2018-09-29T09:30:49.461Z,1.40
2018-09-29T09:33:18.507Z,1.20
2018-09-29T09:35:47.300Z,1.40
2018-09-29T09:38:16.194Z,1.00
2018-09-29T09:40:45.000Z,1.20
2018-09-29T09:43:13.749Z,1.03
2018-09-29T09:45:42.610Z,1.07
2018-09-29T09:48:17.156Z,1.00
2018-09-29T09:50:47.072Z,1.00
2018-09-29T09:53:15.867Z,1.30
2018-09-29T09:55:44.625Z,1.07
2018-09-29T09:58:13.378Z,0.90
2018-09-29T10:00:47.482Z,0.97
2018-09-29T10:03:21.504Z,1.40
2018-09-29T10:05:50.280Z,1.00
2018-09-29T10:08:18.952Z,1.00
2018-09-29T10:10:47.646Z,1.00
2018-09-29T10:13:16.360Z,0.80
2018-09-29T10:15:45.118Z,1.07
2018-09-29T10:18:13.909Z,1.03
2018-09-29T10:20:42.766Z,0.70
2018-09-29T10:23:11.518Z,1.10
2018-09-29T10:25:40.236Z,0.60
2018-09-29T10:28:08.967Z,0.97
2018-09-29T10:30:37.781Z,0.90
2018-09-29T10:33:06.665Z,0.70
2018-09-29T10:35:35.465Z,0.70
2018-09-29T10:38:04.277Z,0.83
2018-09-29T10:40:33.250Z,0.70
2018-09-29T10:43:02.403Z,0.87
2018-09-29T10:45:31.235Z,0.80
2018-09-29T10:47:59.937Z,0.90
2018-09-29T10:50:28.772Z,1.07
2018-09-29T10:52:57.803Z,0.83
2018-09-29T10:55:32.290Z,1.30
2018-09-29T10:58:00.993Z,1.07
2018-09-29T11:00:30.060Z,1.00
2018-09-29T11:02:58.790Z,0.77
2018-09-29T11:05:27.588Z,1.27
2018-09-29T11:07:56.636Z,1.10
2018-09-29T11:10:25.410Z,1.10
2018-09-29T11:12:54.272Z,1.07
2018-09-29T11:15:23.415Z,1.00
2018-09-29T11:17:52.248Z,1.10
2018-09-29T11:20:21.625Z,0.83
2018-09-29T11:22:50.363Z,1.00
2018-09-29T11:25:19.127Z,0.70
2018-09-29T11:27:48.066Z,1.07
2018-09-29T11:30:16.857Z,0.73
2018-09-29T11:32:45.855Z,1.43
2018-09-29T11:35:14.609Z,0.70
2018-09-29T11:37:43.735Z,1.00
2018-09-29T11:40:12.744Z,1.20
2018-09-29T11:42:41.571Z,1.00
2018-09-29T11:45:10.917Z,1.10
2018-09-29T11:47:39.725Z,0.80
2018-09-29T11:50:08.434Z,0.87
2018-09-29T11:52:37.228Z,1.10
2018-09-29T11:55:06.118Z,1.00
2018-09-29T11:57:36.277Z,1.20
2018-09-29T12:00:05.497Z,0.83
2018-09-29T12:02:34.202Z,0.90
2018-09-29T12:05:02.955Z,1.23
2018-09-29T12:07:32.550Z,1.20
2018-09-29T12:10:01.300Z,1.03
2018-09-29T12:12:30.068Z,0.70
2018-09-29T12:14:59.073Z,0.97
2018-09-29T12:17:27.968Z,1.00
2018-09-29T12:19:56.705Z,0.88
2018-09-29T12:22:26.074Z,0.73
2018-09-29T12:24:54.782Z,1.00
2018-09-29T12:27:24.921Z,1.30
2018-09-29T12:29:52.886Z,1.10
2018-09-29T12:32:21.550Z,1.10
2018-09-29T12:34:50.318Z,1.13
2018-09-29T12:37:19.063Z,1.00
2018-09-29T12:39:48.224Z,1.20
2018-09-29T12:42:16.958Z,1.10
2018-09-29T12:44:46.315Z,1.20
2018-09-29T12:47:15.122Z,1.20
2018-09-29T12:49:43.878Z,1.20
2018-09-29T12:52:12.602Z,1.10
2018-09-29T12:54:41.275Z,1.20
2018-09-29T12:57:10.417Z,1.07
2018-09-29T12:59:39.921Z,1.20
2018-09-29T13:02:08.713Z,1.07
2018-09-29T13:04:37.490Z,1.13
2018-09-29T13:07:06.249Z,1.27
2018-09-29T13:09:35.034Z,1.17
2018-09-29T13:12:03.917Z,0.97
2018-09-29T13:14:33.036Z,1.30
2018-09-29T13:17:02.936Z,1.50
2018-09-29T13:19:31.818Z,1.20
2018-09-29T13:22:00.497Z,1.10
2018-09-29T13:24:29.383Z,0.83
2018-09-29T13:27:00.140Z,1.17
2018-09-29T13:29:31.177Z,1.00
2018-09-29T13:32:00.164Z,1.00
2018-09-29T13:34:30.952Z,1.30
2018-09-29T13:37:00.595Z,1.70
2018-09-29T13:39:29.725Z,1.27
2018-09-29T13:41:58.893Z,1.00
2018-09-29T13:44:27.667Z,1.20
2018-09-29T13:46:56.446Z,1.50
2018-09-29T13:49:25.151Z,1.83
2018-09-29T13:51:54.108Z,1.37
2018-09-29T13:54:24.653Z,1.40
2018-09-29T13:56:53.368Z,1.27
2018-09-29T13:59:30.705Z,1.13
2018-09-29T14:01:59.440Z,1.40
2018-09-29T14:04:34.064Z,1.00
2018-09-29T14:07:04.273Z,1.23
2018-09-29T14:09:33.111Z,1.97
2018-09-29T14:12:01.820Z,1.07
2018-09-29T14:14:30.609Z,1.17
2018-09-29T14:16:59.399Z,1.30
2018-09-29T14:19:28.356Z,1.07
2018-09-29T14:21:57.215Z,1.20
2018-09-29T14:24:26.057Z,1.30
2018-09-29T14:26:55.127Z,1.30
2018-09-29T14:29:24.042Z,2.00
2018-09-29T14:31:52.756Z,2.50
2018-09-29T14:34:21.518Z,1.17
2018-09-29T14:36:50.286Z,1.53
2018-09-29T14:39:19.753Z,1.03
2018-09-29T14:41:50.305Z,1.63
2018-09-29T14:44:19.253Z,1.30
2018-09-29T14:46:48.237Z,1.00
2018-09-29T14:49:17.081Z,1.30
2018-09-29T14:51:45.820Z,0.93
2018-09-29T14:54:24.832Z,1.13
2018-09-29T14:56:53.711Z,1.10
2018-09-29T14:59:22.556Z,0.97
2018-09-29T15:01:51.389Z,0.90
2018-09-29T15:04:20.221Z,1.00
2018-09-29T15:06:48.878Z,1.10
2018-09-29T15:09:17.624Z,1.10
2018-09-29T15:11:46.397Z,1.03
2018-09-29T15:14:15.097Z,1.30
2018-09-29T15:16:44.369Z,0.80
2018-09-29T15:19:13.245Z,1.00
2018-09-29T15:21:41.904Z,1.20
2018-09-29T15:24:10.783Z,0.90
2018-09-29T15:26:43.899Z,1.00
2018-09-29T15:29:12.622Z,1.10
2018-09-29T15:31:41.473Z,1.23
2018-09-29T15:34:10.198Z,1.27
2018-09-29T15:36:40.236Z,1.30
2018-09-29T15:39:10.756Z,1.10
2018-09-29T15:41:39.737Z,1.20
2018-09-29T15:44:08.612Z,1.10
2018-09-29T15:46:37.632Z,1.10
2018-09-29T15:49:06.610Z,1.23
2018-09-29T15:51:35.753Z,1.07
2018-09-29T15:54:11.239Z,1.30
2018-09-29T15:56:40.381Z,1.30
2018-09-29T15:59:09.443Z,1.10
2018-09-29T16:01:38.360Z,1.23
2018-09-29T16:04:08.532Z,1.60
2018-09-29T16:06:37.556Z,2.23
2018-09-29T16:09:08.395Z,1.70
2018-09-29T16:11:37.364Z,1.60
2018-09-29T16:14:06.237Z,1.40
2018-09-29T16:16:37.594Z,1.70
2018-09-29T16:19:06.292Z,1.20
2018-09-29T16:21:35.043Z,1.30
2018-09-29T16:24:03.794Z,1.00
2018-09-29T16:26:32.545Z,1.20
2018-09-29T16:29:01.359Z,1.80
2018-09-29T16:31:30.118Z,1.23
2018-09-29T16:33:58.909Z,1.10
2018-09-29T16:36:27.607Z,1.20
2018-09-29T16:38:56.379Z,1.27
2018-09-29T16:41:25.197Z,1.13
2018-09-29T16:43:54.088Z,1.30
2018-09-29T16:46:22.854Z,1.10
2018-09-29T16:48:51.572Z,0.90
2018-09-29T16:51:20.305Z,0.90
2018-09-29T16:53:49.060Z,1.27
2018-09-29T16:56:20.082Z,0.93
2018-09-29T16:58:48.918Z,1.00
2018-09-29T17:01:17.615Z,1.20
2018-09-29T17:03:46.467Z,1.00
2018-09-29T17:06:19.246Z,1.10
2018-09-29T17:09:05.326Z,1.10
2018-09-29T17:11:37.296Z,0.90
2018-09-29T17:14:08.265Z,0.70
2018-09-29T17:16:48.553Z,1.00
2018-09-29T17:19:17.292Z,1.20
2018-09-29T17:21:46.158Z,0.90
2018-09-29T17:24:14.906Z,0.60
2018-09-29T17:26:43.946Z,1.03
2018-09-29T17:29:12.758Z,0.80
2018-09-29T17:31:41.612Z,1.00
2018-09-29T17:34:10.353Z,0.97
2018-09-29T17:36:39.130Z,1.30
2018-09-29T17:39:09.760Z,1.20
2018-09-29T17:41:38.642Z,1.47
2018-09-29T17:44:07.595Z,1.23
2018-09-29T17:46:37.586Z,1.00
2018-09-29T17:49:06.636Z,2.00
2018-09-29T17:51:35.522Z,2.20
2018-09-29T17:54:04.512Z,5.10
2018-09-29T17:56:33.284Z,2.37
2018-09-29T17:59:02.242Z,2.70
2018-09-29T18:01:30.976Z,2.43
2018-09-29T18:03:59.876Z,2.30
2018-09-29T18:06:28.639Z,1.43
2018-09-29T18:08:57.497Z,2.43
2018-09-29T18:11:26.324Z,3.33
2018-09-29T18:13:55.191Z,2.57
2018-09-29T18:16:24.072Z,2.30
2018-09-29T18:18:52.957Z,1.80
2018-09-29T18:21:21.729Z,2.00
2018-09-29T18:23:50.494Z,2.10
2018-09-29T18:26:19.672Z,2.50
2018-09-29T18:28:48.951Z,2.00
2018-09-29T18:31:17.776Z,1.80
2018-09-29T18:33:50.893Z,1.80
2018-09-29T18:36:19.756Z,2.67
2018-09-29T18:38:48.613Z,3.20
2018-09-29T18:41:17.400Z,3.77
2018-09-29T18:43:46.279Z,5.53
2018-09-29T18:46:15.459Z,5.23
2018-09-29T18:48:44.393Z,3.57
2018-09-29T18:51:13.178Z,3.20
2018-09-29T18:53:42.008Z,3.60
2018-09-29T18:56:11.115Z,3.17
2018-09-29T18:58:41.763Z,2.73
2018-09-29T19:01:10.487Z,2.90
2018-09-29T19:03:39.291Z,3.70
2018-09-29T19:06:08.278Z,3.93
2018-09-29T19:08:37.117Z,3.40
2018-09-29T19:11:06.385Z,3.70
2018-09-29T19:13:35.437Z,4.60
2018-09-29T19:16:04.340Z,5.33
2018-09-29T19:18:34.560Z,4.87
2018-09-29T19:21:03.432Z,5.17
2018-09-29T19:23:32.414Z,5.57
2018-09-29T19:27:04.338Z,4.40
2018-09-29T19:29:33.481Z,3.30
2018-09-29T19:32:02.642Z,3.27
2018-09-29T19:34:31.510Z,3.13
2018-09-29T19:37:00.272Z,3.30
2018-09-29T19:39:29.113Z,4.83
2018-09-29T19:41:58.155Z,4.37
2018-09-29T19:44:27.354Z,4.10
2018-09-29T19:46:56.320Z,3.43
2018-09-29T19:49:26.014Z,3.60
2018-09-29T19:51:54.920Z,3.77
2018-09-29T19:54:23.958Z,3.30
2018-09-29T19:56:52.805Z,5.60
2018-09-29T19:59:21.605Z,3.97
2018-09-29T20:01:50.373Z,3.53
2018-09-29T20:04:19.224Z,2.30
2018-09-29T20:06:48.088Z,3.03
2018-09-29T20:09:16.854Z,2.87
2018-09-29T20:11:52.117Z,3.20
2018-09-29T20:14:21.002Z,3.10
2018-09-29T20:16:49.836Z,2.80
2018-09-29T20:19:18.731Z,3.10
2018-09-29T20:21:47.490Z,3.20
2018-09-29T20:24:16.289Z,2.80
2018-09-29T20:26:45.141Z,2.73
2018-09-29T20:29:14.337Z,2.90
2018-09-29T20:31:43.087Z,2.67
2018-09-29T20:34:11.820Z,3.03
2018-09-29T20:36:40.567Z,2.87
2018-09-29T20:39:12.011Z,3.23
2018-09-29T20:41:41.269Z,3.10
2018-09-29T20:44:10.481Z,2.77
2018-09-29T20:46:39.338Z,3.07
2018-09-29T20:49:08.782Z,3.03
2018-09-29T20:51:38.089Z,3.03
2018-09-29T20:54:06.945Z,3.03
2018-09-29T20:56:35.756Z,2.77
2018-09-29T20:59:04.585Z,2.90
2018-09-29T21:01:33.508Z,2.93
2018-09-29T21:04:02.128Z,3.07
2018-09-29T21:06:30.951Z,2.73
2018-09-29T21:08:59.659Z,2.57
2018-09-29T21:11:28.524Z,3.07
2018-09-29T21:13:57.304Z,2.43
2018-09-29T21:16:25.998Z,2.77
2018-09-29T21:18:54.783Z,2.83
2018-09-29T21:21:23.565Z,2.70
2018-09-29T21:23:52.238Z,2.97
2018-09-29T21:26:20.968Z,2.70
2018-09-29T21:28:49.741Z,2.73
2018-09-29T21:31:18.476Z,2.60
2018-09-29T21:33:47.323Z,2.70
2018-09-29T21:36:16.247Z,3.17
2018-09-29T21:38:44.960Z,2.83
2018-09-29T21:41:13.945Z,3.20
2018-09-29T21:43:42.671Z,3.07
2018-09-29T21:46:11.379Z,3.13
2018-09-29T21:48:40.124Z,3.33
2018-09-29T21:51:08.899Z,3.40
2018-09-29T21:53:37.878Z,3.20
2018-09-29T21:56:06.869Z,3.30
2018-09-29T21:58:38.388Z,3.53
2018-09-29T22:01:15.611Z,3.20
2018-09-29T22:03:45.723Z,3.40
2018-09-29T22:06:15.697Z,3.23
2018-09-29T22:08:44.473Z,2.97
2018-09-29T22:11:13.957Z,3.37
2018-09-29T22:13:44.772Z,4.00
2018-09-29T22:16:13.989Z,3.60
2018-09-29T22:18:42.746Z,3.43
2018-09-29T22:21:11.451Z,2.90
2018-09-29T22:23:40.302Z,3.33
2018-09-29T22:26:09.101Z,4.67
2018-09-29T22:28:37.875Z,3.67
2018-09-29T22:31:06.966Z,3.87
2018-09-29T22:33:35.780Z,3.60
2018-09-29T22:36:04.850Z,2.87
2018-09-29T22:38:34.984Z,3.20
2018-09-29T22:41:03.705Z,3.00
2018-09-29T22:43:32.453Z,2.93
2018-09-29T22:46:01.239Z,2.83
2018-09-29T22:48:29.952Z,3.10
2018-09-29T22:50:58.721Z,2.93
2018-09-29T22:53:27.464Z,3.00
2018-09-29T22:55:56.270Z,3.47
2018-09-29T22:58:25.117Z,3.37
2018-09-29T23:00:53.834Z,3.30
2018-09-29T23:03:22.665Z,3.33
2018-09-29T23:05:51.408Z,3.43
2018-09-29T23:08:20.216Z,3.20
2018-09-29T23:10:48.945Z,3.20
2018-09-29T23:13:17.793Z,4.03
2018-09-29T23:15:46.519Z,3.30
2018-09-29T23:18:15.261Z,3.87
2018-09-29T23:20:44.042Z,3.30
2018-09-29T23:23:12.794Z,3.43
2018-09-29T23:25:41.520Z,3.50
2018-09-29T23:28:10.215Z,4.20
2018-09-29T23:30:38.922Z,3.20
2018-09-29T23:33:07.708Z,3.10
2018-09-29T23:35:36.492Z,3.10
2018-09-29T23:38:05.242Z,3.50
2018-09-29T23:40:33.922Z,3.53
2018-09-29T23:43:02.740Z,3.60
2018-09-29T23:45:31.508Z,3.70
2018-09-29T23:48:00.212Z,3.90
2018-09-29T23:50:28.948Z,3.43
2018-09-29T23:52:57.744Z,3.53
2018-09-29T23:55:26.518Z,4.07
2018-09-29T23:57:55.252Z,2.97
